createdAt,value
2023-01-19T00:01:43.727Z,94138.77
2023-01-19T00:04:12.108Z,94130.16
2023-01-19T00:06:40.288Z,94127.60
2023-01-19T00:09:08.546Z,94127.73
2023-01-19T00:11:37.166Z,94125.21
2023-01-19T00:14:05.812Z,94117.05
2023-01-19T00:16:34.142Z,94115.23
2023-01-19T00:19:02.960Z,94113.59
2023-01-19T00:21:31.261Z,94103.84
2023-01-19T00:23:59.654Z,94101.91
2023-01-19T00:26:28.142Z,94100.20
2023-01-19T00:28:56.928Z,94097.31
2023-01-19T00:31:25.307Z,94095.35
2023-01-19T00:33:53.691Z,94093.69
2023-01-19T00:36:21.956Z,94100.96
2023-01-19T00:38:50.061Z,94104.42
2023-01-19T00:41:18.631Z,94110.68
2023-01-19T00:43:46.954Z,94114.08
2023-01-19T00:46:15.068Z,94121.14
2023-01-19T00:48:45.000Z,94126.77
2023-01-19T00:51:13.014Z,94120.56
2023-01-19T00:53:41.244Z,94118.76
2023-01-19T00:56:09.418Z,94120.38
2023-01-19T00:58:37.590Z,94124.73
2023-01-19T01:01:06.519Z,94125.92
2023-01-19T01:03:34.866Z,94121.18
2023-01-19T01:06:04.402Z,94118.20
2023-01-19T01:08:33.568Z,94124.59
2023-01-19T01:11:01.766Z,94125.02
2023-01-19T01:13:30.313Z,94123.44
2023-01-19T01:15:59.021Z,94119.75
2023-01-19T01:18:27.296Z,94129.23
2023-01-19T01:21:03.322Z,94119.77
2023-01-19T01:23:31.633Z,94121.09
2023-01-19T01:25:59.931Z,94112.89
2023-01-19T01:28:28.095Z,94112.28
2023-01-19T01:30:57.263Z,94104.41
2023-01-19T01:33:41.076Z,94098.48
2023-01-19T01:36:11.920Z,94088.58
2023-01-19T01:38:41.517Z,94080.84
2023-01-19T01:41:10.547Z,94076.38
2023-01-19T01:43:51.755Z,94077.29
2023-01-19T01:46:20.202Z,94075.13
2023-01-19T01:49:01.768Z,94076.11
2023-01-19T01:51:37.702Z,94072.09
2023-01-19T01:54:11.371Z,94065.74
2023-01-19T01:56:43.183Z,94060.29
2023-01-19T01:59:26.257Z,94052.93
2023-01-19T02:02:15.972Z,94055.67
2023-01-19T02:04:49.813Z,94058.17
2023-01-19T02:07:41.710Z,94065.27
2023-01-19T02:10:29.543Z,94071.23
2023-01-19T02:13:16.797Z,94080.17
2023-01-19T02:15:46.271Z,94070.27
2023-01-19T02:18:14.853Z,94061.30
2023-01-19T02:21:05.579Z,94048.90
2023-01-19T02:23:52.634Z,94039.04
2023-01-19T02:26:27.307Z,94032.24
2023-01-19T02:29:00.628Z,94025.58
2023-01-19T02:31:31.257Z,94024.08
2023-01-19T02:34:01.888Z,94028.59
2023-01-19T02:36:41.329Z,94025.80
2023-01-19T02:39:11.431Z,94023.70
2023-01-19T02:41:46.954Z,94020.65
2023-01-19T02:44:16.957Z,94012.27
2023-01-19T02:46:45.176Z,94009.50
2023-01-19T02:49:13.862Z,94003.80
2023-01-19T02:51:44.563Z,93997.97
2023-01-19T02:54:16.572Z,94000.89
2023-01-19T02:57:25.086Z,93999.98
2023-01-19T03:00:09.929Z,93994.85
2023-01-19T03:03:02.206Z,93992.89
2023-01-19T03:05:30.779Z,94000.84
2023-01-19T03:08:10.110Z,94004.45
2023-01-19T03:10:53.961Z,94000.36
2023-01-19T03:13:22.085Z,93997.98
2023-01-19T03:15:55.917Z,93997.82
2023-01-19T03:18:29.117Z,93993.02
2023-01-19T03:21:02.427Z,94005.88
2023-01-19T03:23:32.707Z,94019.05
2023-01-19T03:26:03.369Z,94030.52
2023-01-19T03:28:34.851Z,94040.63
2023-01-19T03:31:11.643Z,94039.58
2023-01-19T03:33:44.204Z,94034.64
2023-01-19T03:36:26.101Z,94028.92
2023-01-19T03:38:56.136Z,94027.12
2023-01-19T03:41:27.894Z,94023.21
2023-01-19T03:43:57.073Z,94030.81
2023-01-19T03:46:26.646Z,94029.04
2023-01-19T03:48:55.483Z,94034.06
2023-01-19T03:51:24.421Z,94024.77
2023-01-19T03:53:52.972Z,94019.87
2023-01-19T03:56:24.739Z,94016.09
2023-01-19T03:58:53.509Z,94005.19
2023-01-19T04:01:23.230Z,94004.40
2023-01-19T04:03:52.955Z,93997.73
2023-01-19T04:06:21.935Z,93998.96
2023-01-19T04:08:52.139Z,94000.97
2023-01-19T04:11:20.406Z,93999.55
2023-01-19T04:13:48.803Z,94004.46
2023-01-19T04:16:20.879Z,94007.02
2023-01-19T04:18:49.763Z,94005.08
2023-01-19T04:21:18.686Z,93994.35
2023-01-19T04:23:47.663Z,93988.76
2023-01-19T04:26:16.383Z,93986.37
2023-01-19T04:28:44.726Z,93981.73
2023-01-19T04:38:49.616Z,93957.86
2023-01-19T04:41:18.854Z,93958.07
2023-01-19T04:43:48.322Z,93958.34
2023-01-19T04:46:16.853Z,93959.98
2023-01-19T04:48:45.597Z,93919.86
2023-01-19T04:51:13.877Z,93876.80
2023-01-19T04:53:42.768Z,93895.91
2023-01-19T04:56:11.249Z,93928.03
2023-01-19T04:58:40.347Z,93934.34
2023-01-19T05:01:10.505Z,93935.81
2023-01-19T05:03:38.740Z,93947.77
2023-01-19T05:06:09.382Z,93948.74
2023-01-19T05:08:37.719Z,93945.71
2023-01-19T05:11:06.555Z,93956.32
2023-01-19T05:13:36.360Z,93946.87
2023-01-19T05:16:06.437Z,93951.82
2023-01-19T05:18:37.306Z,93947.23
2023-01-19T05:21:07.556Z,93949.80
2023-01-19T05:23:36.145Z,93958.52
2023-01-19T05:26:05.365Z,93958.06
2023-01-19T05:28:34.346Z,93961.05
2023-01-19T05:31:02.759Z,93952.77
2023-01-19T05:33:31.300Z,93954.25
2023-01-19T05:35:59.781Z,93963.52
2023-01-19T05:38:35.279Z,93963.91
2023-01-19T05:41:04.333Z,93963.34
2023-01-19T05:43:33.429Z,93976.17
2023-01-19T05:46:05.447Z,93989.50
2023-01-19T05:48:34.729Z,93981.96
2023-01-19T05:51:03.284Z,93973.20
2023-01-19T05:53:32.171Z,93978.95
2023-01-19T05:56:06.244Z,93980.02
2023-01-19T05:58:36.403Z,93979.36
2023-01-19T06:01:06.977Z,93976.70
2023-01-19T06:03:39.869Z,93971.70
2023-01-19T06:06:09.340Z,93971.79
2023-01-19T06:08:37.813Z,93971.73
2023-01-19T06:11:07.690Z,93978.96
2023-01-19T06:13:35.913Z,93976.80
2023-01-19T06:16:04.750Z,93984.55
2023-01-19T06:18:33.176Z,93980.20
2023-01-19T06:21:10.587Z,93979.73
2023-01-19T06:23:39.673Z,93986.16
2023-01-19T06:26:08.096Z,93984.77
2023-01-19T06:28:36.745Z,93984.09
2023-01-19T06:31:05.658Z,93981.75
2023-01-19T06:33:34.347Z,93998.47
2023-01-19T06:36:02.704Z,94002.20
2023-01-19T06:38:32.786Z,94017.98
2023-01-19T06:41:03.582Z,94029.88
2023-01-19T06:43:33.148Z,94036.02
2023-01-19T06:46:03.322Z,94038.36
2023-01-19T06:48:31.788Z,94051.10
2023-01-19T06:51:00.056Z,94055.67
2023-01-19T06:53:29.555Z,94058.86
2023-01-19T06:56:02.887Z,94059.81
2023-01-19T06:58:34.889Z,94056.61
2023-01-19T07:01:07.476Z,94043.77
2023-01-19T07:03:38.111Z,94034.08
2023-01-19T07:06:08.246Z,94030.50
2023-01-19T07:08:38.525Z,94025.44
2023-01-19T07:11:25.222Z,94002.14
2023-01-19T07:13:58.928Z,94003.17
2023-01-19T07:16:27.722Z,93993.29
2023-01-19T07:18:57.658Z,94001.91
2023-01-19T07:21:29.063Z,94014.48
2023-01-19T07:23:58.359Z,94013.61
2023-01-19T07:26:28.268Z,94005.21
2023-01-19T07:28:56.686Z,94001.50
2023-01-19T07:31:25.287Z,93990.95
2023-01-19T07:33:54.029Z,93999.40
2023-01-19T07:36:23.437Z,94011.08
2023-01-19T07:38:52.206Z,94032.78
2023-01-19T07:41:20.807Z,94018.45
2023-01-19T07:43:51.572Z,94015.73
2023-01-19T07:46:21.496Z,94027.21
2023-01-19T07:48:50.521Z,94046.65
2023-01-19T07:51:19.281Z,94052.48
2023-01-19T07:53:50.700Z,94059.86
2023-01-19T07:56:20.414Z,94063.46
2023-01-19T07:58:50.739Z,94072.55
2023-01-19T08:01:20.966Z,94090.56
2023-01-19T08:03:51.432Z,94102.81
2023-01-19T08:06:27.629Z,94098.86
2023-01-19T08:08:56.575Z,94089.06
2023-01-19T08:11:26.264Z,94080.27
2023-01-19T08:13:54.747Z,94080.31
2023-01-19T08:16:23.230Z,94076.19
2023-01-19T08:18:51.603Z,94070.82
2023-01-19T08:21:21.643Z,94068.30
2023-01-19T08:23:58.318Z,94074.69
2023-01-19T08:26:30.167Z,94079.77
2023-01-19T08:29:03.658Z,94086.84
2023-01-19T08:31:33.239Z,94092.65
2023-01-19T08:34:02.703Z,94098.17
2023-01-19T08:36:31.512Z,94096.20
2023-01-19T08:39:00.581Z,94098.05
2023-01-19T08:41:29.157Z,94101.27
2023-01-19T08:43:58.424Z,94111.12
2023-01-19T08:46:27.507Z,94113.08
2023-01-19T08:48:55.668Z,94107.42
2023-01-19T08:51:24.517Z,94104.77
2023-01-19T08:53:53.011Z,94102.13
2023-01-19T08:56:21.306Z,94104.33
2023-01-19T08:59:07.390Z,94104.08
2023-01-19T09:01:37.741Z,94100.51
2023-01-19T09:04:06.495Z,94096.33
2023-01-19T09:06:34.778Z,94098.77
2023-01-19T09:09:03.283Z,94105.18
2023-01-19T09:11:31.896Z,94107.38
2023-01-19T09:14:00.727Z,94112.27
2023-01-19T09:16:31.262Z,94114.67
2023-01-19T09:18:59.553Z,94113.80
2023-01-19T09:21:29.026Z,94108.55
2023-01-19T09:23:58.262Z,94101.69
2023-01-19T09:26:28.272Z,94102.55
2023-01-19T09:28:58.290Z,94100.63
2023-01-19T09:31:26.477Z,94103.38
2023-01-19T09:33:55.051Z,94108.91
2023-01-19T09:36:23.669Z,94114.93
2023-01-19T09:38:53.313Z,94116.45
2023-01-19T09:41:25.285Z,94108.99
2023-01-19T09:43:59.646Z,94111.11
2023-01-19T09:46:39.868Z,94112.88
2023-01-19T09:49:18.213Z,94106.77
2023-01-19T09:51:49.822Z,94108.71
2023-01-19T09:54:20.593Z,94107.11
2023-01-19T09:56:52.834Z,94106.85
2023-01-19T09:59:24.819Z,94105.53
2023-01-19T10:02:24.696Z,94101.59
2023-01-19T10:04:54.162Z,94099.30
2023-01-19T10:07:28.691Z,94089.98
2023-01-19T10:10:05.243Z,94088.55
2023-01-19T10:12:52.925Z,94089.77
2023-01-19T10:15:28.135Z,94088.83
2023-01-19T10:18:18.144Z,94086.17
2023-01-19T10:21:22.455Z,94084.05
2023-01-19T10:24:07.049Z,94077.73
2023-01-19T10:26:54.224Z,94070.27
2023-01-19T10:29:29.348Z,94063.88
2023-01-19T10:32:09.044Z,94062.07
2023-01-19T10:34:37.803Z,94065.82
2023-01-19T10:37:31.403Z,94067.08
2023-01-19T10:40:14.636Z,94067.52
2023-01-19T10:42:43.302Z,94073.11
2023-01-19T10:45:21.816Z,94085.27
2023-01-19T10:47:51.126Z,94090.23
2023-01-19T10:50:26.168Z,94083.87
2023-01-19T10:52:57.703Z,94076.06
2023-01-19T10:55:38.378Z,94074.98
2023-01-19T10:58:26.311Z,94072.01
2023-01-19T11:00:54.766Z,94071.09
2023-01-19T11:03:31.874Z,94067.06
2023-01-19T11:06:18.873Z,94066.25
2023-01-19T11:08:51.923Z,94067.13
2023-01-19T11:11:23.823Z,94063.86
2023-01-19T11:14:12.861Z,94066.95
2023-01-19T11:16:46.697Z,94062.70
2023-01-19T11:19:21.159Z,94061.09
2023-01-19T11:21:49.557Z,94060.33
2023-01-19T11:24:18.820Z,94060.18
2023-01-19T11:27:03.071Z,94061.09
2023-01-19T11:29:32.222Z,94057.48
2023-01-19T11:32:19.416Z,94063.66
2023-01-19T11:34:48.296Z,94069.95
2023-01-19T11:37:17.402Z,94072.18
2023-01-19T11:39:51.726Z,94079.23
2023-01-19T11:42:21.837Z,94075.89
2023-01-19T11:45:03.350Z,94082.80
2023-01-19T11:47:45.139Z,94081.80
2023-01-19T11:50:35.322Z,94077.61
2023-01-19T11:53:26.224Z,94076.41
2023-01-19T11:55:59.315Z,94077.28
2023-01-19T11:58:28.416Z,94072.60
2023-01-19T12:01:05.667Z,94073.61
2023-01-19T12:03:59.307Z,94073.45
2023-01-19T12:06:35.751Z,94076.27
2023-01-19T12:09:11.257Z,94073.77
2023-01-19T12:11:48.557Z,94066.52
2023-01-19T12:14:27.330Z,94069.52
2023-01-19T12:17:00.329Z,94078.92
2023-01-19T12:19:53.431Z,94082.81
2023-01-19T12:22:28.830Z,94085.61
2023-01-19T12:25:10.904Z,94092.29
2023-01-19T12:27:41.058Z,94099.70
2023-01-19T12:30:23.693Z,94101.98
2023-01-19T12:33:13.111Z,94101.20
2023-01-19T12:36:01.085Z,94099.02
2023-01-19T12:38:45.132Z,94099.30
2023-01-19T12:41:17.921Z,94103.35
2023-01-19T12:44:07.058Z,94109.30
2023-01-19T12:46:37.476Z,94112.24
2023-01-19T12:49:07.609Z,94106.77
2023-01-19T12:51:38.581Z,94092.98
2023-01-19T12:54:25.770Z,94095.96
2023-01-19T12:57:02.638Z,94085.06
2023-01-19T12:59:33.994Z,94094.86
2023-01-19T13:02:35.418Z,94101.92
2023-01-19T13:05:46.047Z,94093.41
2023-01-19T13:08:16.296Z,94104.31
2023-01-19T13:11:03.205Z,94108.17
2023-01-19T13:13:38.317Z,94111.41
2023-01-19T13:16:19.572Z,94112.58
2023-01-19T13:18:56.375Z,94115.29
2023-01-19T13:21:45.218Z,94114.89
2023-01-19T13:24:17.027Z,94117.13
2023-01-19T13:26:57.922Z,94114.16
2023-01-19T13:29:31.391Z,94116.23
2023-01-19T13:32:05.209Z,94124.92
2023-01-19T13:34:40.930Z,94128.34
2023-01-19T13:37:18.516Z,94131.63
2023-01-19T13:39:52.385Z,94134.05
2023-01-19T13:42:48.384Z,94129.63
2023-01-19T13:45:30.462Z,94135.00
2023-01-19T13:48:06.819Z,94126.77
2023-01-19T13:50:39.366Z,94113.20
2023-01-19T13:53:20.867Z,94113.27
2023-01-19T13:56:06.417Z,94125.67
2023-01-19T13:58:35.597Z,94135.77
2023-01-19T14:01:04.616Z,94147.85
2023-01-19T14:03:33.391Z,94158.73
2023-01-19T14:06:03.465Z,94165.56
2023-01-19T14:08:34.175Z,94165.88
2023-01-19T14:11:03.107Z,94167.10
2023-01-19T14:13:35.035Z,94173.96
2023-01-19T14:16:13.636Z,94176.19
2023-01-19T14:18:42.383Z,94169.83
2023-01-19T14:21:15.310Z,94163.97
2023-01-19T14:24:06.700Z,94169.02
2023-01-19T14:26:41.998Z,94182.57
2023-01-19T14:29:10.065Z,94183.09
2023-01-19T14:31:52.968Z,94174.92
2023-01-19T14:34:40.155Z,94179.39
2023-01-19T14:37:21.110Z,94180.86
2023-01-19T14:40:01.265Z,94184.00
2023-01-19T14:42:34.815Z,94185.69
2023-01-19T14:45:13.326Z,94192.64
2023-01-19T14:47:44.947Z,94200.39
2023-01-19T14:50:24.946Z,94211.16
2023-01-19T14:53:00.990Z,94212.33
2023-01-19T14:56:07.726Z,94210.88
2023-01-19T14:58:36.783Z,94209.45
2023-01-19T15:01:06.603Z,94211.40
2023-01-19T15:03:43.967Z,94214.52
2023-01-19T15:06:23.362Z,94223.33
2023-01-19T15:08:54.962Z,94228.86
2023-01-19T15:11:34.124Z,94220.39
2023-01-19T15:14:03.293Z,94212.16
2023-01-19T15:16:34.542Z,94205.77
2023-01-19T15:19:28.217Z,94213.90
2023-01-19T15:21:56.900Z,94221.77
2023-01-19T15:24:27.240Z,94232.35
2023-01-19T15:26:55.820Z,94236.22
2023-01-19T15:29:26.680Z,94244.79
2023-01-19T15:31:54.992Z,94250.48
2023-01-19T15:34:24.134Z,94258.46
2023-01-19T15:36:52.405Z,94251.02
2023-01-19T15:39:21.916Z,94246.55
2023-01-19T15:41:50.966Z,94253.89
2023-01-19T15:44:19.208Z,94266.12
2023-01-19T15:46:47.562Z,94269.98
2023-01-19T15:49:15.868Z,94264.95
2023-01-19T15:51:44.226Z,94264.84
2023-01-19T15:54:15.000Z,94275.89
2023-01-19T15:56:43.758Z,94292.35
2023-01-19T15:59:12.038Z,94296.52
2023-01-19T16:01:41.397Z,94300.91
2023-01-19T16:04:11.984Z,94301.47
2023-01-19T16:06:40.349Z,94300.85
2023-01-19T16:09:16.976Z,94301.23
2023-01-19T16:11:47.568Z,94296.38
2023-01-19T16:14:17.586Z,94293.80
2023-01-19T16:16:46.430Z,94294.86
2023-01-19T16:19:16.978Z,94296.23
2023-01-19T16:21:45.281Z,94290.43
2023-01-19T16:24:13.998Z,94296.52
2023-01-19T16:26:42.440Z,94296.61
2023-01-19T16:29:11.273Z,94302.23
2023-01-19T16:31:42.206Z,94309.30
2023-01-19T16:34:10.975Z,94317.06
2023-01-19T16:36:41.931Z,94321.11
2023-01-19T16:39:15.039Z,94323.12
2023-01-19T16:41:46.140Z,94324.63
2023-01-19T16:44:16.927Z,94323.48
2023-01-19T16:46:47.933Z,94326.92
2023-01-19T16:49:19.368Z,94331.89
2023-01-19T16:51:49.001Z,94335.49
2023-01-19T16:54:23.662Z,94340.58
2023-01-19T16:56:53.854Z,94346.06
2023-01-19T16:59:24.774Z,94345.06
2023-01-19T17:01:55.197Z,94343.98
2023-01-19T17:04:25.038Z,94341.45
2023-01-19T17:06:56.067Z,94344.21
2023-01-19T17:09:26.712Z,94349.75
2023-01-19T17:11:58.460Z,94354.35
2023-01-19T17:14:27.863Z,94354.48
2023-01-19T17:16:57.705Z,94357.33
2023-01-19T17:19:30.769Z,94362.27
2023-01-19T17:21:59.148Z,94368.66
2023-01-19T17:24:27.507Z,94360.17
2023-01-19T17:26:56.114Z,94357.23
2023-01-19T17:29:25.927Z,94356.20
2023-01-19T17:31:56.569Z,94365.58
2023-01-19T17:34:25.250Z,94368.55
2023-01-19T17:36:54.581Z,94368.84
2023-01-19T17:39:23.448Z,94365.51
2023-01-19T17:41:53.072Z,94364.48
2023-01-19T17:44:21.238Z,94369.51
2023-01-19T17:46:49.698Z,94372.35
2023-01-19T17:49:18.366Z,94371.61
2023-01-19T17:51:53.142Z,94373.84
2023-01-19T17:54:22.017Z,94373.79
2023-01-19T17:56:51.068Z,94378.25
2023-01-19T17:59:19.703Z,94380.85
2023-01-19T18:01:49.610Z,94383.59
2023-01-19T18:04:18.126Z,94391.39
2023-01-19T18:06:47.512Z,94393.96
2023-01-19T18:09:16.499Z,94396.85
2023-01-19T18:11:45.969Z,94396.25
2023-01-19T18:14:14.315Z,94397.95
2023-01-19T18:16:42.591Z,94392.14
2023-01-19T18:19:12.585Z,94385.02
2023-01-19T18:21:41.080Z,94382.56
2023-01-19T18:24:10.097Z,94386.02
2023-01-19T18:26:39.273Z,94387.58
2023-01-19T18:29:07.902Z,94392.45
2023-01-19T18:31:36.921Z,94398.84
2023-01-19T18:34:05.952Z,94401.23
2023-01-19T18:36:35.054Z,94407.77
2023-01-19T18:39:05.275Z,94424.06
2023-01-19T18:41:41.012Z,94439.90
2023-01-19T18:44:11.975Z,94441.52
2023-01-19T18:46:41.154Z,94447.86
2023-01-19T18:49:10.892Z,94460.55
2023-01-19T18:51:40.809Z,94470.73
2023-01-19T18:54:10.603Z,94476.73
2023-01-19T18:56:38.943Z,94474.64
2023-01-19T18:59:07.264Z,94476.72
2023-01-19T19:01:36.748Z,94474.39
2023-01-19T19:04:06.303Z,94474.25
2023-01-19T19:06:35.900Z,94481.56
2023-01-19T19:09:04.377Z,94480.06
2023-01-19T19:11:35.016Z,94472.06
2023-01-19T19:14:04.605Z,94469.36
2023-01-19T19:16:35.498Z,94480.15
2023-01-19T19:19:06.307Z,94487.46
2023-01-19T19:21:34.867Z,94489.70
2023-01-19T19:24:03.251Z,94493.64
2023-01-19T19:26:32.864Z,94491.79
2023-01-19T19:29:03.703Z,94484.70
2023-01-19T19:31:32.214Z,94487.75
2023-01-19T19:34:00.889Z,94480.51
2023-01-19T19:36:30.080Z,94488.05
2023-01-19T19:38:59.809Z,94493.69
2023-01-19T19:41:30.185Z,94494.52
2023-01-19T19:43:59.210Z,94491.70
2023-01-19T19:46:27.731Z,94484.91
2023-01-19T19:48:56.077Z,94480.88
2023-01-19T19:51:27.441Z,94466.16
2023-01-19T19:53:59.356Z,94478.23
2023-01-19T19:56:30.347Z,94487.27
2023-01-19T19:59:00.883Z,94492.20
2023-01-19T20:01:33.688Z,94488.73
2023-01-19T20:04:10.886Z,94494.23
2023-01-19T20:06:41.568Z,94502.09
2023-01-19T20:09:12.874Z,94498.94
2023-01-19T20:11:43.050Z,94494.21
2023-01-19T20:14:13.366Z,94506.56
2023-01-19T20:16:43.757Z,94511.63
2023-01-19T20:19:13.097Z,94518.73
2023-01-19T20:21:43.341Z,94524.82
2023-01-19T20:24:19.497Z,94531.16
2023-01-19T20:26:52.848Z,94531.17
2023-01-19T20:29:21.277Z,94535.48
2023-01-19T20:31:54.007Z,94538.17
2023-01-19T20:34:27.056Z,94541.33
2023-01-19T20:36:55.748Z,94542.27
2023-01-19T20:39:25.251Z,94533.73
2023-01-19T20:41:53.609Z,94532.04
2023-01-19T20:44:24.252Z,94530.74
2023-01-19T20:46:54.405Z,94539.52
2023-01-19T20:49:23.390Z,94538.73
2023-01-19T20:51:52.371Z,94552.20
2023-01-19T20:54:24.630Z,94550.07
2023-01-19T20:56:53.224Z,94555.04
2023-01-19T20:59:21.893Z,94556.58
2023-01-19T21:01:50.704Z,94564.75
2023-01-19T21:04:20.088Z,94570.81
2023-01-19T21:06:48.889Z,94562.73
2023-01-19T21:09:18.707Z,94562.48
2023-01-19T21:11:47.390Z,94567.53
2023-01-19T21:14:15.884Z,94567.66
2023-01-19T21:16:44.414Z,94575.64
2023-01-19T21:19:13.495Z,94580.08
2023-01-19T21:21:41.873Z,94574.91
2023-01-19T21:24:11.440Z,94575.92
2023-01-19T21:26:41.857Z,94578.45
2023-01-19T21:29:13.471Z,94579.34
2023-01-19T21:31:42.471Z,94587.77
2023-01-19T21:34:10.823Z,94589.98
2023-01-19T21:36:39.176Z,94595.18
2023-01-19T21:39:08.411Z,94600.77
2023-01-19T21:41:38.505Z,94605.73
2023-01-19T21:44:06.983Z,94612.94
2023-01-19T21:46:35.891Z,94610.41
2023-01-19T21:49:06.639Z,94611.48
2023-01-19T21:51:37.164Z,94609.41
2023-01-19T21:54:06.971Z,94615.23
2023-01-19T21:56:36.163Z,94625.23
2023-01-19T21:59:05.295Z,94629.86
2023-01-19T22:01:34.545Z,94643.63
2023-01-19T22:04:03.630Z,94645.66
2023-01-19T22:06:32.164Z,94648.84
2023-01-19T22:09:01.032Z,94645.17
2023-01-19T22:11:30.547Z,94637.81
2023-01-19T22:13:59.878Z,94638.49
2023-01-19T22:16:29.706Z,94638.27
2023-01-19T22:19:01.334Z,94630.99
2023-01-19T22:21:36.005Z,94628.39
2023-01-19T22:24:05.246Z,94624.91
2023-01-19T22:26:35.180Z,94620.52
2023-01-19T22:29:05.834Z,94623.79
2023-01-19T22:31:34.664Z,94616.44
2023-01-19T22:34:03.100Z,94606.35
2023-01-19T22:36:35.650Z,94604.53
2023-01-19T22:39:07.306Z,94610.15
2023-01-19T22:41:39.400Z,94613.30
2023-01-19T22:44:17.272Z,94619.02
2023-01-19T22:46:45.656Z,94627.94
2023-01-19T22:49:17.108Z,94638.15
2023-01-19T22:51:46.127Z,94640.86
2023-01-19T22:54:14.588Z,94643.36
2023-01-19T22:56:43.377Z,94645.54
2023-01-19T22:59:11.879Z,94648.51
2023-01-19T23:01:42.867Z,94650.75
2023-01-19T23:04:14.647Z,94653.66
2023-01-19T23:06:43.560Z,94652.67
2023-01-19T23:09:13.813Z,94651.67
2023-01-19T23:11:44.467Z,94647.94
2023-01-19T23:14:15.316Z,94646.83
2023-01-19T23:16:43.636Z,94659.41
2023-01-19T23:19:12.692Z,94660.20
2023-01-19T23:21:41.256Z,94657.86
2023-01-19T23:24:09.587Z,94647.65
2023-01-19T23:26:38.506Z,94636.89
2023-01-19T23:29:11.273Z,94638.48
2023-01-19T23:31:42.716Z,94653.42
2023-01-19T23:34:12.467Z,94655.72
2023-01-19T23:36:42.659Z,94652.66
2023-01-19T23:39:20.451Z,94661.05
2023-01-19T23:41:49.499Z,94661.40
2023-01-19T23:44:18.293Z,94662.50
2023-01-19T23:46:47.010Z,94658.55
2023-01-19T23:49:15.347Z,94655.95
2023-01-19T23:51:43.582Z,94652.08
2023-01-19T23:54:12.455Z,94634.20
2023-01-19T23:56:42.707Z,94626.27
2023-01-19T23:59:13.547Z,94625.45
